Time;durP1;ratioP1;P1;durP2;ratioP2;P2;SDS_P1;SDS_P2;PMS_P1;PMS_P2;Temp;Humidity;BMP_temperature;BMP_pressure;BME280_temperature;BME280_humidity;BME280_pressure;Samples;Min_cycle;Max_cycle;Signal;HPM_P1;HPM_P2
2022/05/01 00:01:20;;;;;;;20.77;14.95;;;5.20;99.90;;;;;;4998641;28;20154;-55
2022/05/01 00:03:46;;;;;;;21.60;16.02;;;5.20;99.90;;;;;;4986681;28;20905;-56
2022/05/01 00:06:13;;;;;;;20.55;15.07;;;5.10;99.90;;;;;;5003646;28;20046;-57
2022/05/01 00:08:40;;;;;;;20.63;15.10;;;5.10;99.90;;;;;;4993666;28;20455;-58
2022/05/01 00:11:08;;;;;;;21.92;16.38;;;5.10;99.90;;;;;;4998363;28;20204;-56
2022/05/01 00:13:34;;;;;;;22.30;15.98;;;5.10;99.90;;;;;;5001542;28;20057;-57
2022/05/01 00:16:01;;;;;;;20.80;14.52;;;5.00;99.90;;;;;;4986395;28;20088;-57
2022/05/01 00:18:27;;;;;;;22.45;15.63;;;5.00;99.90;;;;;;5010566;28;20544;-58
2022/05/01 00:20:53;;;;;;;20.25;14.98;;;5.00;99.90;;;;;;4985328;28;20052;-57
2022/05/01 00:23:19;;;;;;;22.23;15.80;;;4.90;99.90;;;;;;4988476;28;20292;-55
2022/05/01 00:25:45;;;;;;;19.25;14.77;;;4.90;99.90;;;;;;4987605;28;20041;-53
2022/05/01 00:28:12;;;;;;;20.20;14.40;;;4.90;99.90;;;;;;4992342;28;20068;-53
2022/05/01 00:30:39;;;;;;;25.60;15.15;;;4.90;99.90;;;;;;5007788;28;20048;-54
2022/05/01 00:38:35;;;;;;;41.72;20.90;;;4.70;99.90;;;;;;5007438;28;20605;-54
2022/05/01 00:41:02;;;;;;;31.45;18.13;;;4.70;99.90;;;;;;5009434;28;20073;-57
2022/05/01 00:43:27;;;;;;;31.33;18.60;;;4.80;99.90;;;;;;5012612;28;20124;-56
2022/05/01 00:45:53;;;;;;;39.80;21.63;;;4.80;99.90;;;;;;5010310;28;20121;-54
2022/05/01 00:48:19;;;;;;;38.53;20.95;;;4.70;99.90;;;;;;4993348;28;20046;-56
2022/05/01 00:50:45;;;;;;;33.95;19.27;;;4.70;99.90;;;;;;4992130;28;20136;-58
2022/05/01 00:53:11;;;;;;;35.05;21.50;;;4.70;99.90;;;;;;4994122;28;20263;-56
2022/05/01 00:55:38;;;;;;;34.55;20.92;;;4.70;99.90;;;;;;4987688;28;20556;-56
2022/05/01 00:58:07;;;;;;;44.13;23.10;;;4.70;99.90;;;;;;4991093;28;20574;-58
2022/05/01 01:00:34;;;;;;;33.33;18.65;;;4.70;99.90;;;;;;5007801;28;20042;-57
2022/05/01 01:03:00;;;;;;;32.45;18.58;;;4.70;99.90;;;;;;5014200;28;20162;-56
2022/05/01 01:05:26;;;;;;;35.47;19.45;;;4.70;99.90;;;;;;4993820;28;20057;-57
2022/05/01 01:07:52;;;;;;;30.00;17.52;;;4.70;99.90;;;;;;4971538;28;20128;-58
2022/05/01 01:10:19;;;;;;;21.23;14.63;;;4.60;99.90;;;;;;5006255;28;20107;-58
2022/05/01 01:12:54;;;;;;;25.73;17.27;;;4.60;99.90;;;;;;5013090;28;20045;-57
2022/05/01 01:15:21;;;;;;;24.20;16.63;;;4.60;99.90;;;;;;5011302;28;20053;-55
2022/05/01 01:17:52;;;;;;;23.60;16.58;;;4.60;99.90;;;;;;5001934;28;20057;-54
2022/05/01 01:20:29;;;;;;;24.10;16.25;;;4.60;99.90;;;;;;4993223;28;20354;-54
2022/05/01 01:22:57;;;;;;;23.75;15.48;;;4.60;99.90;;;;;;5018378;28;20223;-55
2022/05/01 01:25:31;;;;;;;20.38;14.82;;;4.60;99.90;;;;;;4989939;28;20041;-56
2022/05/01 01:28:05;;;;;;;20.10;14.73;;;4.60;99.90;;;;;;5010434;28;20485;-53
2022/05/01 01:33:17;;;;;;;19.48;13.95;;;4.60;99.90;;;;;;4999244;28;20720;-57
2022/05/01 01:35:45;;;;;;;17.45;13.80;;;4.60;99.90;;;;;;5005862;28;20080;-55
2022/05/01 01:38:11;;;;;;;18.85;14.55;;;4.60;99.90;;;;;;5005104;28;20495;-56
2022/05/01 01:40:51;;;;;;;17.55;13.32;;;4.50;99.90;;;;;;5006350;28;20075;-54
2022/05/01 01:43:27;;;;;;;19.10;13.35;;;4.50;99.90;;;;;;5007808;28;20033;-55
2022/05/01 01:45:56;;;;;;;16.33;13.57;;;4.50;99.90;;;;;;5011472;28;20042;-53
2022/05/01 01:48:23;;;;;;;16.08;11.52;;;4.40;99.90;;;;;;5008974;28;20548;-55
2022/05/01 01:51:01;;;;;;;15.02;11.90;;;4.40;99.90;;;;;;4996121;28;20048;-54
2022/05/01 01:53:29;;;;;;;14.10;11.63;;;4.40;99.90;;;;;;5015637;28;20037;-56
2022/05/01 01:55:57;;;;;;;15.98;12.07;;;4.40;99.90;;;;;;5011439;28;21086;-56
2022/05/01 01:58:24;;;;;;;15.40;11.75;;;4.30;99.90;;;;;;5004988;28;20125;-56
2022/05/01 02:00:50;;;;;;;14.70;11.75;;;4.40;99.90;;;;;;4990188;28;20148;-56
2022/05/01 02:03:16;;;;;;;13.70;11.32;;;4.40;99.90;;;;;;5007150;28;20038;-54
2022/05/01 02:05:42;;;;;;;15.52;12.48;;;4.30;99.90;;;;;;5008178;28;20563;-56
2022/05/01 02:08:08;;;;;;;13.93;11.73;;;4.20;99.90;;;;;;5000340;28;20046;-55
2022/05/01 02:10:35;;;;;;;13.88;11.40;;;4.20;99.90;;;;;;5011149;28;20065;-56
2022/05/01 02:13:02;;;;;;;14.75;11.60;;;4.20;99.90;;;;;;4996190;28;20416;-55
2022/05/01 02:15:30;;;;;;;14.73;12.27;;;4.10;99.90;;;;;;5003605;28;20067;-56
2022/05/01 02:17:58;;;;;;;13.25;11.15;;;4.10;99.90;;;;;;5010609;28;20029;-54
2022/05/01 02:20:25;;;;;;;13.90;10.85;;;4.10;99.90;;;;;;5006324;28;20038;-55
2022/05/01 02:22:53;;;;;;;12.68;10.23;;;4.10;99.90;;;;;;5012141;28;20113;-55
2022/05/01 02:25:21;;;;;;;11.75;9.25;;;4.00;99.90;;;;;;5001893;28;20124;-55
2022/05/01 02:27:47;;;;;;;10.48;8.48;;;4.00;99.90;;;;;;5011774;28;20485;-54
2022/05/01 02:30:13;;;;;;;13.07;10.43;;;3.90;99.90;;;;;;5008875;28;20095;-54
2022/05/01 02:32:40;;;;;;;11.35;8.75;;;3.80;99.90;;;;;;5005300;28;20037;-53
2022/05/01 02:35:07;;;;;;;11.38;9.02;;;3.80;99.90;;;;;;5014593;28;20531;-55
2022/05/01 02:37:33;;;;;;;11.75;9.02;;;3.80;99.90;;;;;;5012626;28;20045;-56
2022/05/01 02:39:59;;;;;;;10.77;8.50;;;3.80;99.90;;;;;;5012455;28;20111;-55
2022/05/01 02:42:25;;;;;;;10.05;8.57;;;3.70;99.90;;;;;;5013446;28;20040;-55
2022/05/01 02:44:50;;;;;;;9.68;7.97;;;3.70;99.90;;;;;;5013023;28;20053;-53
2022/05/01 02:47:16;;;;;;;9.05;7.05;;;3.80;99.90;;;;;;5007655;28;20056;-52
2022/05/01 02:49:42;;;;;;;10.50;8.27;;;3.80;99.90;;;;;;5007797;28;20041;-56
2022/05/01 02:52:09;;;;;;;8.13;6.90;;;3.70;99.90;;;;;;5009468;28;20512;-53
2022/05/01 02:54:35;;;;;;;11.55;7.90;;;3.60;99.90;;;;;;5004820;28;20048;-56
2022/05/01 02:57:02;;;;;;;8.98;8.05;;;3.60;99.90;;;;;;5010093;28;20471;-56
2022/05/01 02:59:27;;;;;;;10.00;8.02;;;3.60;99.90;;;;;;5008632;28;20030;-55
2022/05/01 03:01:55;;;;;;;11.45;10.02;;;3.60;99.90;;;;;;4993040;28;20523;-56
2022/05/01 03:04:21;;;;;;;13.35;11.07;;;3.60;99.90;;;;;;5008927;28;20053;-54
2022/05/01 03:06:48;;;;;;;12.18;10.55;;;3.60;99.90;;;;;;5006011;28;20081;-55
2022/05/01 03:09:14;;;;;;;15.02;12.43;;;3.60;99.90;;;;;;5007003;28;20040;-56
2022/05/01 03:11:39;;;;;;;13.75;11.48;;;3.50;99.90;;;;;;5005252;28;21348;-55
2022/05/01 03:14:09;;;;;;;17.23;13.10;;;3.50;99.90;;;;;;5003808;28;20071;-57
2022/05/01 03:16:35;;;;;;;16.33;12.63;;;3.50;99.90;;;;;;5013341;28;20044;-53
2022/05/01 03:24:30;;;;;;;14.95;12.52;;;3.40;99.90;;;;;;5003640;28;20050;-55
2022/05/01 03:26:56;;;;;;;16.10;12.60;;;3.30;99.90;;;;;;4980728;28;20184;-54
2022/05/01 03:29:22;;;;;;;18.08;14.88;;;3.20;99.90;;;;;;4998823;28;20583;-55
2022/05/01 03:31:50;;;;;;;20.25;14.50;;;3.20;99.90;;;;;;5003763;28;20617;-55
2022/05/01 03:34:19;;;;;;;23.70;16.23;;;3.10;99.90;;;;;;5006042;28;20079;-54
2022/05/01 03:36:45;;;;;;;18.52;14.80;;;3.10;99.90;;;;;;5010024;28;20049;-55
2022/05/01 03:39:11;;;;;;;18.48;14.57;;;3.10;99.90;;;;;;4990517;28;20032;-55
2022/05/01 03:41:38;;;;;;;20.45;15.27;;;3.10;99.90;;;;;;5005783;28;20077;-53
2022/05/01 03:44:07;;;;;;;17.98;14.00;;;3.20;99.90;;;;;;5010918;28;20054;-52
2022/05/01 03:46:36;;;;;;;16.25;14.18;;;3.20;99.90;;;;;;4989675;28;20046;-55
2022/05/01 03:49:03;;;;;;;19.35;14.55;;;3.10;99.90;;;;;;5009358;28;20056;-55
2022/05/01 03:51:31;;;;;;;17.65;14.77;;;3.20;99.90;;;;;;4991374;28;20049;-55
2022/05/01 03:54:02;;;;;;;18.05;14.57;;;3.20;99.90;;;;;;5008996;28;20057;-55
2022/05/01 03:56:29;;;;;;;18.35;14.00;;;3.20;99.90;;;;;;4992405;28;20254;-55
2022/05/01 03:58:54;;;;;;;21.85;16.15;;;3.20;99.90;;;;;;5011633;28;20125;-53
2022/05/01 04:01:20;;;;;;;19.92;15.10;;;3.20;99.90;;;;;;5006906;28;20564;-54
2022/05/01 04:03:46;;;;;;;19.27;15.10;;;3.30;99.90;;;;;;5008929;28;20068;-55
2022/05/01 04:06:12;;;;;;;20.80;14.85;;;3.30;99.90;;;;;;4987841;28;20404;-52
2022/05/01 04:08:38;;;;;;;14.75;12.40;;;3.30;99.90;;;;;;5002444;28;20132;-56
2022/05/01 04:11:04;;;;;;;19.17;14.75;;;3.30;99.90;;;;;;5000887;28;20050;-55
2022/05/01 04:13:30;;;;;;;17.15;13.95;;;3.20;99.90;;;;;;5001273;28;20034;-55
2022/05/01 04:15:56;;;;;;;22.17;15.23;;;3.20;99.90;;;;;;5009184;28;20569;-55
2022/05/01 04:18:21;;;;;;;16.98;13.35;;;3.20;99.90;;;;;;5009817;28;20489;-55
2022/05/01 04:20:47;;;;;;;19.23;14.25;;;3.30;99.90;;;;;;5003020;28;20516;-55
2022/05/01 04:23:13;;;;;;;20.08;14.43;;;3.30;99.90;;;;;;4984888;28;20037;-54
2022/05/01 04:25:40;;;;;;;21.23;14.35;;;3.30;99.90;;;;;;5006333;28;20053;-55
2022/05/01 04:28:10;;;;;;;18.23;13.57;;;3.30;99.90;;;;;;4992668;28;20066;-54
2022/05/01 04:30:37;;;;;;;20.38;15.88;;;3.30;99.90;;;;;;4991711;28;20462;-53
2022/05/01 04:33:09;;;;;;;20.52;13.93;;;3.40;99.90;;;;;;4997653;28;20073;-53
2022/05/01 04:35:38;;;;;;;18.90;14.38;;;3.20;99.90;;;;;;5008341;28;20107;-56
2022/05/01 04:38:12;;;;;;;19.77;14.90;;;3.20;99.90;;;;;;4994250;28;20226;-56
2022/05/01 04:40:39;;;;;;;;;;;3.20;99.90;;;;;;5003202;28;20304;-55
2022/05/01 04:43:07;;;;;;;24.55;15.82;;;3.20;99.90;;;;;;5012657;28;20336;-54
2022/05/01 04:45:34;;;;;;;18.50;14.77;;;3.10;99.90;;;;;;5004803;28;20604;-56
2022/05/01 04:48:01;;;;;;;18.98;14.45;;;3.10;99.90;;;;;;4993311;28;20057;-55
2022/05/01 04:50:27;;;;;;;20.67;15.15;;;3.10;99.90;;;;;;5008686;28;20072;-54
2022/05/01 04:52:54;;;;;;;21.42;15.07;;;3.10;99.90;;;;;;5012445;28;20045;-55
2022/05/01 04:55:21;;;;;;;19.42;14.70;;;3.20;99.90;;;;;;5006201;28;20072;-55
2022/05/01 04:57:46;;;;;;;19.65;14.55;;;3.20;99.90;;;;;;5007581;28;20038;-54
2022/05/01 05:00:19;;;;;;;15.60;12.63;;;3.20;99.90;;;;;;5006441;28;20468;-55
2022/05/01 05:02:53;;;;;;;21.47;15.53;;;3.30;99.90;;;;;;4994099;28;20295;-54
2022/05/01 05:05:20;;;;;;;26.58;16.60;;;3.40;99.90;;;;;;4994237;28;20089;-54
2022/05/01 05:07:46;;;;;;;21.13;15.20;;;3.40;99.90;;;;;;5016818;28;20044;-55
2022/05/01 05:10:14;;;;;;;22.40;15.23;;;3.50;99.90;;;;;;5014474;28;20054;-55
2022/05/01 05:12:42;;;;;;;19.48;14.25;;;3.50;99.90;;;;;;4992865;28;20232;-53
2022/05/01 05:15:10;;;;;;;20.13;14.02;;;3.60;99.90;;;;;;5009265;28;20480;-52
2022/05/01 05:17:37;;;;;;;16.67;13.18;;;3.60;99.90;;;;;;5008785;28;20049;-53
2022/05/01 05:20:07;;;;;;;17.90;14.15;;;3.70;99.90;;;;;;5013324;28;20124;-56
2022/05/01 05:22:33;;;;;;;19.88;12.73;;;3.70;99.90;;;;;;5016987;28;20049;-55
2022/05/01 05:24:59;;;;;;;20.33;14.98;;;3.80;99.90;;;;;;5020282;28;20041;-58
2022/05/01 05:27:27;;;;;;;19.48;14.30;;;3.80;99.90;;;;;;4999412;28;20147;-55
2022/05/01 05:29:57;;;;;;;17.35;13.23;;;3.90;99.90;;;;;;5022997;28;20543;-57
2022/05/01 05:32:24;;;;;;;16.15;12.90;;;4.00;99.90;;;;;;5007387;28;20374;-52
2022/05/01 05:34:51;;;;;;;16.42;13.55;;;4.10;99.90;;;;;;5010286;28;20129;-54
2022/05/01 05:37:18;;;;;;;19.02;13.82;;;4.10;99.90;;;;;;5009296;28;20503;-56
2022/05/01 05:39:44;;;;;;;14.25;11.07;;;4.20;99.90;;;;;;5007764;28;20034;-52
2022/05/01 05:42:11;;;;;;;17.00;13.45;;;4.30;99.90;;;;;;5000496;28;20065;-56
2022/05/01 05:44:38;;;;;;;14.07;12.57;;;4.40;99.90;;;;;;5013169;28;20038;-53
2022/05/01 05:47:04;;;;;;;13.55;11.23;;;4.50;99.90;;;;;;5015264;28;20282;-57
2022/05/01 05:49:31;;;;;;;11.30;9.88;;;4.70;99.90;;;;;;4996818;28;20044;-53
2022/05/01 05:51:58;;;;;;;11.88;10.65;;;4.70;99.90;;;;;;5011948;28;20124;-53
2022/05/01 05:54:23;;;;;;;17.38;13.75;;;4.90;99.90;;;;;;5010600;28;20096;-55
2022/05/01 05:56:49;;;;;;;15.68;12.85;;;5.00;99.90;;;;;;5007434;28;20042;-54
2022/05/01 05:59:16;;;;;;;13.18;10.27;;;5.10;99.90;;;;;;5005630;28;20136;-56
2022/05/01 06:01:42;;;;;;;14.85;12.80;;;5.20;99.90;;;;;;4995625;28;20041;-56
2022/05/01 06:04:08;;;;;;;13.55;10.88;;;5.30;99.90;;;;;;5006298;28;20044;-56
2022/05/01 06:06:34;;;;;;;15.30;11.93;;;5.40;99.90;;;;;;5011845;28;20045;-58
2022/05/01 06:09:00;;;;;;;13.93;11.80;;;5.50;99.90;;;;;;4990666;28;21629;-54
2022/05/01 06:11:26;;;;;;;15.07;11.15;;;5.60;99.90;;;;;;5010168;23;20064;-55
2022/05/01 06:13:53;;;;;;;16.38;13.00;;;5.80;99.90;;;;;;4993356;28;20050;-56
2022/05/01 06:16:19;;;;;;;21.02;15.00;;;6.00;99.90;;;;;;4978701;28;20041;-54
2022/05/01 06:18:45;;;;;;;17.83;13.80;;;6.20;99.90;;;;;;5002960;28;20381;-56
2022/05/01 06:21:11;;;;;;;20.35;13.00;;;6.30;99.90;;;;;;4993875;28;20049;-55
2022/05/01 06:23:37;;;;;;;18.75;13.75;;;6.40;99.90;;;;;;4995421;28;20416;-57
2022/05/01 06:26:05;;;;;;;16.83;12.82;;;6.70;99.90;;;;;;4991352;28;20057;-55
2022/05/01 06:28:31;;;;;;;17.70;12.73;;;6.80;99.90;;;;;;4991893;28;20050;-56
2022/05/01 06:30:58;;;;;;;17.92;11.05;;;6.90;99.90;;;;;;4992854;28;20222;-56
2022/05/01 06:33:24;;;;;;;22.75;13.20;;;7.10;99.90;;;;;;4993007;28;20250;-56
2022/05/01 06:35:53;;;;;;;16.67;10.60;;;7.20;99.90;;;;;;4994241;28;20085;-57
2022/05/01 06:38:19;;;;;;;16.67;11.20;;;7.30;99.90;;;;;;4977958;28;20129;-56
2022/05/01 06:40:46;;;;;;;16.20;11.05;;;7.40;99.90;;;;;;4996837;28;20133;-57
2022/05/01 06:43:14;;;;;;;13.40;9.75;;;7.50;99.90;;;;;;4992427;28;20120;-55
2022/05/01 06:45:41;;;;;;;14.18;10.55;;;7.60;99.90;;;;;;4982053;28;21920;-57
2022/05/01 06:48:11;;;;;;;16.20;10.70;;;7.70;99.90;;;;;;4977311;28;20038;-54
2022/05/01 06:50:38;;;;;;;14.77;10.73;;;7.90;99.90;;;;;;4996802;28;20038;-57
2022/05/01 06:53:05;;;;;;;16.52;12.55;;;8.00;99.90;;;;;;4995569;28;20169;-57
2022/05/01 06:55:31;;;;;;;18.35;11.60;;;8.10;99.90;;;;;;4991673;28;20057;-55
2022/05/01 06:57:57;;;;;;;12.77;10.73;;;8.20;99.90;;;;;;4981297;28;20045;-55
2022/05/01 07:00:23;;;;;;;15.02;10.82;;;8.30;99.90;;;;;;4989700;28;20034;-54
2022/05/01 07:02:51;;;;;;;13.75;10.32;;;8.40;99.90;;;;;;5003533;28;20070;-55
2022/05/01 07:05:18;;;;;;;13.93;11.18;;;8.50;99.90;;;;;;5006784;28;20200;-56
2022/05/01 07:07:45;;;;;;;15.35;10.40;;;8.60;99.90;;;;;;4974830;28;20050;-55
2022/05/01 07:10:11;;;;;;;15.45;11.63;;;8.70;99.90;;;;;;4975003;28;20038;-56
2022/05/01 07:12:37;;;;;;;17.42;11.00;;;8.80;99.90;;;;;;4990890;28;20046;-56
2022/05/01 07:15:04;;;;;;;14.10;10.05;;;9.00;99.90;;;;;;4989741;28;21282;-55
2022/05/01 07:17:30;;;;;;;12.95;10.93;;;9.10;99.90;;;;;;4996532;28;20026;-56
2022/05/01 07:19:56;;;;;;;13.98;10.95;;;9.20;99.90;;;;;;4989477;28;21859;-57
2022/05/01 07:22:21;;;;;;;16.73;10.80;;;9.30;99.90;;;;;;4990788;28;20060;-55
2022/05/01 07:24:47;;;;;;;15.73;11.40;;;9.40;99.90;;;;;;4987619;28;20056;-57
2022/05/01 07:27:13;;;;;;;14.45;11.40;;;9.50;99.90;;;;;;4981091;28;20413;-55
2022/05/01 07:29:39;;;;;;;17.17;10.85;;;9.50;99.90;;;;;;4993143;28;20069;-55
2022/05/01 07:32:05;;;;;;;14.98;11.55;;;9.80;99.90;;;;;;4985930;28;20133;-55
2022/05/01 07:34:31;;;;;;;14.27;10.88;;;9.90;99.90;;;;;;4992719;28;20479;-57
2022/05/01 07:36:57;;;;;;;11.63;9.77;;;10.00;99.90;;;;;;4968188;28;20038;-55
2022/05/01 07:39:22;;;;;;;13.48;10.05;;;10.10;99.90;;;;;;4989465;28;20035;-55
2022/05/01 07:41:48;;;;;;;13.68;11.07;;;10.20;99.90;;;;;;4976339;28;20077;-53
2022/05/01 07:44:14;;;;;;;14.32;8.88;;;10.30;99.90;;;;;;4982371;28;20582;-55
2022/05/01 07:46:46;;;;;;;10.10;8.90;;;10.40;99.90;;;;;;4999541;28;20042;-54
2022/05/01 07:49:12;;;;;;;12.88;9.38;;;10.50;99.90;;;;;;4999022;28;20041;-57
2022/05/01 07:51:38;;;;;;;9.85;7.43;;;10.60;99.90;;;;;;4988547;28;20069;-58
2022/05/01 07:54:05;;;;;;;10.10;7.07;;;10.60;99.90;;;;;;4999867;28;20503;-55
2022/05/01 07:56:32;;;;;;;7.85;4.85;;;10.70;99.90;;;;;;4979287;28;20203;-58
2022/05/01 07:58:59;;;;;;;8.27;5.35;;;10.60;99.90;;;;;;4999318;28;20038;-57
2022/05/01 08:01:25;;;;;;;9.13;7.10;;;10.60;99.90;;;;;;5000374;28;20050;-58
2022/05/01 08:06:36;;;;;;;8.63;6.53;;;10.60;99.90;;;;;;4979288;28;20510;-58
2022/05/01 08:09:02;;;;;;;6.32;5.15;;;10.60;99.90;;;;;;4998655;28;20096;-55
2022/05/01 08:11:28;;;;;;;8.73;5.50;;;10.60;99.10;;;;;;4990333;28;20508;-52
2022/05/01 08:13:54;;;;;;;6.85;5.30;;;10.60;99.50;;;;;;4998354;28;20077;-56
2022/05/01 08:16:21;;;;;;;9.45;5.82;;;10.60;99.40;;;;;;4997225;28;20077;-59
2022/05/01 08:21:32;;;;;;;8.25;5.80;;;10.60;99.20;;;;;;4998663;28;20575;-56
2022/05/01 08:23:59;;;;;;;8.05;6.53;;;10.60;99.20;;;;;;4995563;28;20120;-56
2022/05/01 08:26:25;;;;;;;13.52;6.05;;;10.70;99.30;;;;;;4977601;28;20046;-60
2022/05/01 08:28:53;;;;;;;8.52;5.85;;;10.80;99.30;;;;;;4965175;28;20065;-57
2022/05/01 08:31:18;;;;;;;8.23;6.32;;;10.90;99.30;;;;;;4999557;28;20484;-56
2022/05/01 08:33:44;;;;;;;10.18;6.32;;;11.00;98.70;;;;;;4982889;28;20054;-55
2022/05/01 08:36:10;;;;;;;9.30;6.45;;;11.00;98.70;;;;;;5001358;28;20096;-52
2022/05/01 08:38:37;;;;;;;10.52;6.57;;;11.10;98.50;;;;;;4978266;28;20044;-58
2022/05/01 08:41:03;;;;;;;8.57;7.03;;;11.20;98.20;;;;;;4981405;28;20046;-59
2022/05/01 08:43:29;;;;;;;9.05;6.25;;;11.30;98.70;;;;;;4995201;28;20049;-58
2022/05/01 08:46:13;;;;;;;8.65;6.90;;;11.40;98.30;;;;;;4959708;28;20260;-54
2022/05/01 08:48:42;;;;;;;;;;;11.50;97.80;;;;;;4997291;28;20064;-56
2022/05/01 08:51:08;;;;;;;10.82;6.55;;;11.60;97.40;;;;;;4995647;28;20384;-58
2022/05/01 08:53:37;;;;;;;10.35;6.95;;;11.70;97.40;;;;;;4993414;28;20042;-55
2022/05/01 08:56:07;;;;;;;8.73;6.50;;;11.90;97.50;;;;;;4995123;28;20060;-58
2022/05/01 08:58:34;;;;;;;10.23;6.80;;;12.10;97.70;;;;;;4995047;28;20046;-55
2022/05/01 09:00:59;;;;;;;8.05;6.05;;;12.10;96.30;;;;;;4996656;28;20049;-57
2022/05/01 09:03:25;;;;;;;8.70;5.47;;;11.90;95.10;;;;;;4980974;28;20069;-57
2022/05/01 09:05:52;;;;;;;7.53;6.10;;;11.90;95.90;;;;;;4994993;28;20046;-59
2022/05/01 09:08:18;;;;;;;9.32;6.72;;;11.90;95.10;;;;;;4980998;28;20046;-58
2022/05/01 09:10:44;;;;;;;7.15;5.90;;;11.90;95.80;;;;;;4989247;28;20049;-58
2022/05/01 09:13:11;;;;;;;8.30;6.00;;;12.00;96.00;;;;;;4992694;28;20046;-56
2022/05/01 09:15:43;;;;;;;8.73;6.70;;;12.00;95.80;;;;;;4994792;28;20559;-58
2022/05/01 09:18:16;;;;;;;9.32;6.65;;;11.90;95.00;;;;;;4997875;28;20073;-59
2022/05/01 09:21:01;;;;;;;7.25;6.00;;;11.70;93.90;;;;;;4998553;28;20065;-55
2022/05/01 09:23:45;;;;;;;9.63;6.70;;;11.80;94.60;;;;;;4978569;28;20508;-56
2022/05/01 09:26:13;;;;;;;8.00;6.53;;;12.00;95.30;;;;;;4999228;28;20046;-57
2022/05/01 09:28:55;;;;;;;9.75;6.07;;;12.40;95.70;;;;;;4999173;28;20041;-54
2022/05/01 09:31:46;;;;;;;8.30;6.35;;;12.30;93.40;;;;;;4995953;28;20314;-57
2022/05/01 09:34:23;;;;;;;7.40;5.45;;;12.30;94.10;;;;;;4994509;28;20072;-57
2022/05/01 09:36:52;;;;;;;8.05;5.80;;;12.30;92.30;;;;;;4995446;28;20076;-56
2022/05/01 09:39:19;;;;;;;7.38;5.70;;;12.20;93.20;;;;;;4990911;28;20036;-56
2022/05/01 09:41:45;;;;;;;9.20;5.90;;;12.10;92.10;;;;;;4993048;28;20120;-57
2022/05/01 09:44:16;;;;;;;8.88;6.13;;;12.00;92.30;;;;;;4973761;28;20037;-60
2022/05/01 09:46:44;;;;;;;12.88;6.78;;;12.10;92.90;;;;;;5001429;28;20049;-56
2022/05/01 09:49:13;;;;;;;8.65;6.75;;;12.10;92.70;;;;;;4998783;28;20058;-55
2022/05/01 09:51:46;;;;;;;10.27;6.65;;;12.20;93.20;;;;;;4997574;28;20123;-56
2022/05/01 09:54:25;;;;;;;9.55;7.07;;;12.30;93.20;;;;;;4999904;28;20046;-60
2022/05/01 09:56:52;;;;;;;9.90;6.45;;;12.40;93.00;;;;;;4994107;28;20050;-56
2022/05/01 09:59:20;;;;;;;10.32;6.97;;;12.30;92.50;;;;;;4986412;28;20323;-56
2022/05/01 10:02:03;;;;;;;8.05;5.47;;;12.50;93.00;;;;;;4993660;28;20042;-58
2022/05/01 10:04:34;;;;;;;11.30;5.97;;;12.60;92.80;;;;;;4993737;28;20117;-58
2022/05/01 10:07:01;;;;;;;7.55;6.20;;;12.60;92.70;;;;;;4991884;28;20054;-57
2022/05/01 10:09:28;;;;;;;8.35;6.22;;;12.50;91.40;;;;;;4998887;28;20046;-58
2022/05/01 10:11:56;;;;;;;8.82;6.75;;;12.50;91.40;;;;;;5000319;28;20116;-55
2022/05/01 10:14:23;;;;;;;8.25;6.53;;;12.50;92.20;;;;;;4989564;28;20041;-58
2022/05/01 10:16:50;;;;;;;8.80;6.18;;;12.80;92.10;;;;;;4995073;28;20420;-60
2022/05/01 10:19:19;;;;;;;10.00;7.03;;;13.00;91.50;;;;;;4995840;28;20045;-57
2022/05/01 10:21:49;;;;;;;9.15;6.28;;;13.00;88.80;;;;;;5003543;28;20026;-57
2022/05/01 10:24:16;;;;;;;8.55;6.38;;;13.00;89.80;;;;;;4992696;28;20061;-58
2022/05/01 10:26:46;;;;;;;9.13;6.68;;;13.20;90.80;;;;;;4998139;28;20113;-54
2022/05/01 10:29:31;;;;;;;7.35;5.80;;;13.50;90.00;;;;;;5000035;28;20485;-60
2022/05/01 10:32:32;;;;;;;7.78;5.78;;;13.40;88.70;;;;;;4996602;28;20151;-55
2022/05/01 10:35:25;;;;;;;8.38;5.10;;;13.10;87.90;;;;;;4949421;28;20416;-57
2022/05/01 10:38:17;;;;;;;7.88;5.65;;;13.10;89.80;;;;;;4994734;28;20056;-55
2022/05/01 10:40:48;;;;;;;6.75;5.47;;;13.20;89.80;;;;;;5001979;28;20045;-57
2022/05/01 10:43:27;;;;;;;7.85;5.63;;;13.10;88.40;;;;;;5002584;28;20133;-57
2022/05/01 10:45:55;;;;;;;7.28;5.18;;;13.20;89.40;;;;;;5002788;28;20120;-58
2022/05/01 10:48:35;;;;;;;7.07;5.38;;;13.40;88.40;;;;;;5001868;28;20098;-60
2022/05/01 10:51:39;;;;;;;7.30;5.55;;;13.50;88.50;;;;;;4995216;28;20493;-58
2022/05/01 10:54:10;;;;;;;7.22;4.88;;;13.60;86.40;;;;;;4992085;28;20045;-59
2022/05/01 10:56:48;;;;;;;7.47;5.25;;;13.50;83.40;;;;;;4995547;28;20401;-58
2022/05/01 10:59:29;;;;;;;7.97;6.03;;;13.50;84.00;;;;;;4993910;28;20124;-57
2022/05/01 11:02:06;;;;;;;7.55;5.47;;;13.50;83.70;;;;;;4999058;28;20041;-59
2022/05/01 11:04:36;;;;;;;6.88;5.20;;;13.70;85.80;;;;;;4993932;28;20064;-55
2022/05/01 11:07:04;;;;;;;5.80;5.05;;;13.90;85.30;;;;;;4991816;28;20049;-54
2022/05/01 11:09:34;;;;;;;8.27;5.93;;;13.70;83.10;;;;;;4989016;28;20068;-57
2022/05/01 11:12:01;;;;;;;6.65;5.05;;;13.90;85.70;;;;;;4997755;28;20049;-60
2022/05/01 11:14:51;;;;;;;6.85;5.40;;;14.10;84.50;;;;;;5002012;28;20488;-56
2022/05/01 11:17:28;;;;;;;7.03;5.22;;;14.20;84.50;;;;;;4995762;28;20050;-55
2022/05/01 11:20:02;;;;;;;7.18;5.25;;;14.20;82.60;;;;;;4983183;28;20168;-59
2022/05/01 11:22:28;;;;;;;6.20;4.97;;;14.20;83.70;;;;;;5000750;28;20128;-55
2022/05/01 11:24:54;;;;;;;8.07;5.65;;;14.20;82.60;;;;;;4998027;28;20049;-55
2022/05/01 11:27:21;;;;;;;9.43;5.75;;;13.90;80.60;;;;;;4994679;28;20068;-57
2022/05/01 11:30:06;;;;;;;6.53;5.22;;;13.80;81.80;;;;;;5001360;28;20524;-54
2022/05/01 11:32:50;;;;;;;7.25;5.25;;;14.00;82.90;;;;;;4998330;28;20124;-58
2022/05/01 11:35:16;;;;;;;6.20;4.93;;;14.30;82.30;;;;;;4983125;28;20049;-55
2022/05/01 11:38:06;;;;;;;9.40;5.60;;;14.60;83.80;;;;;;4987689;28;20088;-55
2022/05/01 11:40:32;;;;;;;7.88;5.18;;;15.00;80.30;;;;;;5004744;28;20600;-57
2022/05/01 11:43:19;;;;;;;5.38;4.75;;;15.10;82.10;;;;;;4975961;28;20042;-58
2022/05/01 11:45:46;;;;;;;7.80;5.25;;;15.50;82.70;;;;;;4996509;28;20044;-60
2022/05/01 11:48:21;;;;;;;7.05;5.15;;;15.40;76.70;;;;;;5012870;28;20038;-56
2022/05/01 11:50:50;;;;;;;7.50;5.22;;;15.20;79.00;;;;;;4999941;28;20365;-52
2022/05/01 11:53:24;;;;;;;6.32;4.72;;;15.10;79.60;;;;;;4998611;28;20121;-58
2022/05/01 12:04:32;;;;;;;7.65;4.80;;;15.60;81.00;;;;;;5001700;28;20053;-57
2022/05/01 12:07:20;;;;;;;7.63;5.13;;;15.90;81.80;;;;;;5000450;28;20072;-58
2022/05/01 12:09:47;;;;;;;7.47;5.10;;;15.70;76.80;;;;;;5001278;28;20034;-57
2022/05/01 12:12:16;;;;;;;8.25;5.18;;;15.50;77.90;;;;;;5000523;28;20038;-58
2022/05/01 12:14:43;;;;;;;5.28;4.78;;;15.70;76.90;;;;;;5001325;28;20038;-56
2022/05/01 12:17:20;;;;;;;7.05;4.55;;;15.70;76.80;;;;;;5003249;28;20050;-57
2022/05/01 12:19:48;;;;;;;6.05;5.20;;;15.50;75.90;;;;;;4973061;28;20045;-60
2022/05/01 12:22:19;;;;;;;6.45;4.82;;;15.60;77.30;;;;;;4987569;28;20046;-58
2022/05/01 12:24:46;;;;;;;6.80;4.22;;;15.80;77.80;;;;;;4991915;28;20041;-56
2022/05/01 12:27:13;;;;;;;7.63;4.97;;;15.80;75.30;;;;;;4989035;28;20046;-58
2022/05/01 12:29:46;;;;;;;6.35;4.80;;;15.90;77.10;;;;;;4985001;28;20063;-60
2022/05/01 12:32:17;;;;;;;5.70;4.72;;;16.00;75.40;;;;;;4995880;28;20041;-57
2022/05/01 12:34:46;;;;;;;7.00;4.13;;;15.90;75.20;;;;;;4998212;28;20045;-58
2022/05/01 12:37:14;;;;;;;7.47;4.75;;;15.80;74.10;;;;;;5000754;28;20084;-57
2022/05/01 12:39:41;;;;;;;7.20;4.70;;;15.50;72.40;;;;;;4988470;28;20493;-57
2022/05/01 12:45:04;;;;;;;6.75;4.35;;;15.20;74.70;;;;;;4990186;28;20141;-57
2022/05/01 12:47:41;;;;;;;6.90;4.33;;;15.40;74.60;;;;;;4979041;28;20287;-57
2022/05/01 12:50:24;;;;;;;5.97;4.32;;;15.90;75.30;;;;;;4973087;28;20332;-57
2022/05/01 12:52:53;;;;;;;7.22;3.72;;;16.00;73.60;;;;;;5002719;28;20485;-55
2022/05/01 12:55:29;;;;;;;6.03;4.40;;;15.80;73.40;;;;;;5000468;28;20493;-58
2022/05/01 12:57:57;;;;;;;4.78;3.88;;;15.80;73.20;;;;;;4998208;28;20070;-60
2022/05/01 13:00:34;;;;;;;4.00;3.20;;;16.10;73.80;;;;;;4997182;28;20454;-58
2022/05/01 13:03:38;;;;;;;6.35;4.20;;;16.30;70.00;;;;;;5000014;28;20496;-58
2022/05/01 13:06:12;;;;;;;7.07;4.10;;;16.60;68.80;;;;;;5000846;28;20128;-58
2022/05/01 13:08:42;;;;;;;;;;;16.80;68.30;;;;;;4975367;28;20054;-56
2022/05/01 13:11:23;;;;;;;6.22;3.97;;;16.40;63.80;;;;;;4996715;28;20377;-56
2022/05/01 13:14:00;;;;;;;7.30;3.60;;;16.60;68.70;;;;;;4987705;28;20038;-58
2022/05/01 13:16:31;;;;;;;5.32;3.70;;;16.90;67.80;;;;;;4992474;28;20042;-58
2022/05/01 13:19:19;;;;;;;4.82;3.53;;;17.20;71.40;;;;;;4992552;28;20237;-58
2022/05/01 13:21:55;;;;;;;4.35;3.60;;;17.50;66.30;;;;;;4979720;28;20033;-57
2022/05/01 13:24:26;;;;;;;5.57;4.15;;;17.70;67.10;;;;;;4974197;28;20085;-58